createdAt,value
2023-04-08T00:00:59.508Z,17.87
2023-04-08T00:03:26.493Z,17.53
2023-04-08T00:05:53.572Z,17.80
2023-04-08T00:08:20.446Z,18.00
2023-04-08T00:10:47.229Z,16.50
2023-04-08T00:13:14.129Z,18.80
2023-04-08T00:15:42.258Z,17.50
2023-04-08T00:18:09.154Z,18.37
2023-04-08T00:20:36.053Z,17.90
2023-04-08T00:23:03.116Z,17.03
2023-04-08T00:25:29.928Z,16.83
2023-04-08T00:27:56.793Z,16.70
2023-04-08T00:30:23.656Z,17.30
2023-04-08T00:32:50.576Z,16.43
2023-04-08T00:35:17.490Z,19.10
2023-04-08T00:37:44.360Z,18.00
2023-04-08T00:40:12.120Z,18.53
2023-04-08T00:42:39.851Z,17.27
2023-04-08T00:45:07.675Z,17.00
2023-04-08T00:47:36.833Z,16.10
2023-04-08T00:50:04.552Z,15.23
2023-04-08T00:52:31.443Z,17.20
2023-04-08T00:54:58.290Z,17.87
2023-04-08T00:57:25.247Z,16.83
2023-04-08T00:59:52.265Z,16.33
2023-04-08T01:03:06.646Z,16.40
2023-04-08T01:05:54.776Z,17.97
2023-04-08T01:08:23.566Z,16.00
2023-04-08T01:10:54.313Z,16.20
2023-04-08T01:13:24.055Z,17.17
2023-04-08T01:15:50.980Z,17.93
2023-04-08T01:18:19.076Z,17.03
2023-04-08T01:20:47.162Z,16.40
2023-04-08T01:26:47.887Z,16.43
2023-04-08T01:29:16.744Z,15.40
2023-04-08T01:31:44.966Z,16.37
2023-04-08T01:34:15.392Z,17.53
2023-04-08T01:36:45.558Z,19.00
2023-04-08T01:39:15.200Z,17.53
2023-04-08T01:41:42.525Z,18.57
2023-04-08T01:44:12.096Z,17.07
2023-04-08T01:46:41.586Z,15.30
2023-04-08T01:49:09.653Z,17.27
2023-04-08T01:51:38.897Z,16.30
2023-04-08T01:54:06.298Z,16.87
2023-04-08T01:56:39.658Z,15.77
2023-04-08T01:59:14.139Z,15.13
2023-04-08T02:01:43.369Z,17.60
2023-04-08T02:04:10.769Z,16.53
2023-04-08T02:06:38.270Z,15.73
2023-04-08T02:09:05.101Z,16.17
2023-04-08T02:11:32.010Z,14.17
2023-04-08T02:13:59.183Z,15.03
2023-04-08T02:16:34.717Z,14.57
2023-04-08T02:19:29.928Z,15.40
2023-04-08T02:22:06.348Z,15.67
2023-04-08T02:24:35.403Z,14.40
2023-04-08T02:27:04.450Z,15.20
2023-04-08T02:29:33.888Z,14.43
2023-04-08T02:32:02.450Z,14.40
2023-04-08T02:34:30.836Z,14.67
2023-04-08T02:36:58.279Z,13.77
2023-04-08T02:39:33.309Z,15.00
2023-04-08T02:42:00.329Z,15.07
2023-04-08T02:44:27.153Z,15.47
2023-04-08T02:46:53.967Z,14.53
2023-04-08T02:49:20.796Z,14.67
2023-04-08T02:51:47.784Z,14.40
2023-04-08T02:54:14.668Z,14.50
2023-04-08T02:56:41.568Z,14.13
2023-04-08T02:59:08.396Z,14.10
2023-04-08T03:01:35.422Z,14.83
2023-04-08T03:04:02.531Z,13.43
2023-04-08T03:06:29.383Z,14.47
2023-04-08T03:08:56.277Z,14.10
2023-04-08T03:11:23.104Z,15.43
2023-04-08T03:13:49.931Z,15.17
2023-04-08T03:16:16.754Z,16.30
2023-04-08T03:18:43.728Z,14.13
2023-04-08T03:21:10.536Z,14.30
2023-04-08T03:23:37.340Z,13.70
2023-04-08T03:26:04.123Z,14.63
2023-04-08T03:28:30.943Z,13.77
2023-04-08T03:30:57.830Z,14.77
2023-04-08T03:33:24.823Z,14.63
2023-04-08T03:35:51.664Z,14.90
2023-04-08T03:38:18.581Z,15.50
2023-04-08T03:40:45.389Z,13.90
2023-04-08T03:43:12.288Z,14.63
2023-04-08T03:45:39.193Z,14.60
2023-04-08T03:48:06.594Z,15.70
2023-04-08T03:50:33.599Z,15.80
2023-04-08T03:53:00.423Z,13.83
2023-04-08T03:55:27.243Z,15.13
2023-04-08T03:57:54.130Z,15.87
2023-04-08T04:00:20.916Z,14.73
2023-04-08T04:02:47.929Z,15.67
2023-04-08T04:05:14.830Z,16.57
2023-04-08T04:07:41.664Z,15.90
2023-04-08T04:10:09.514Z,16.07
2023-04-08T04:12:36.436Z,15.97
2023-04-08T04:15:03.972Z,15.30
2023-04-08T04:17:30.853Z,15.35
2023-04-08T04:19:57.702Z,17.10
2023-04-08T04:22:24.563Z,14.90
2023-04-08T04:24:51.403Z,18.00
2023-04-08T04:27:18.322Z,15.17
2023-04-08T04:29:45.283Z,14.13
2023-04-08T04:32:12.173Z,15.30
2023-04-08T04:34:39.048Z,16.00
2023-04-08T04:37:05.852Z,16.83
2023-04-08T04:39:32.813Z,16.53
2023-04-08T04:41:59.617Z,15.80
2023-04-08T04:44:26.440Z,17.07
2023-04-08T04:46:53.337Z,17.97
2023-04-08T04:49:20.271Z,17.97
2023-04-08T04:51:47.130Z,14.73
2023-04-08T04:54:13.960Z,14.57
2023-04-08T04:56:40.833Z,15.97
2023-04-08T04:59:07.710Z,17.07
2023-04-08T05:01:35.355Z,16.43
2023-04-08T05:04:02.390Z,17.63
2023-04-08T05:06:29.184Z,19.60
2023-04-08T05:08:56.023Z,20.67
2023-04-08T05:11:22.829Z,20.57
2023-04-08T05:13:49.826Z,24.33
2023-04-08T05:16:16.911Z,31.33
2023-04-08T05:18:43.785Z,18.70
2023-04-08T05:21:10.741Z,19.60
2023-04-08T05:23:37.555Z,15.70
2023-04-08T05:26:08.178Z,16.87
2023-04-08T05:28:35.967Z,18.57
2023-04-08T05:31:03.004Z,18.07
2023-04-08T05:33:29.937Z,17.27
2023-04-08T05:35:56.977Z,18.20
2023-04-08T05:38:24.024Z,19.20
2023-04-08T05:40:50.869Z,20.40
2023-04-08T05:43:17.701Z,21.03
2023-04-08T05:45:44.612Z,19.57
2023-04-08T05:48:11.493Z,21.40
2023-04-08T05:50:38.339Z,21.30
2023-04-08T05:53:05.170Z,22.53
2023-04-08T05:55:32.104Z,19.30
2023-04-08T05:57:58.874Z,21.50
2023-04-08T06:00:25.933Z,22.40
2023-04-08T06:02:53.219Z,22.27
2023-04-08T06:05:20.234Z,21.43
2023-04-08T06:07:47.157Z,22.60
2023-04-08T06:10:14.225Z,23.47
2023-04-08T06:12:41.071Z,23.30
2023-04-08T06:15:09.625Z,24.63
2023-04-08T06:17:38.290Z,24.30
2023-04-08T06:20:07.026Z,23.33
2023-04-08T06:22:33.893Z,22.70
2023-04-08T06:25:00.751Z,22.87
2023-04-08T06:27:27.727Z,25.57
2023-04-08T06:29:54.826Z,26.10
2023-04-08T06:32:22.854Z,24.80
2023-04-08T06:34:49.802Z,26.63
2023-04-08T06:37:16.658Z,27.13
2023-04-08T06:39:43.628Z,26.30
2023-04-08T06:42:10.429Z,27.70
2023-04-08T06:44:37.308Z,25.90
2023-04-08T06:47:04.204Z,25.40
2023-04-08T06:49:31.033Z,28.57
2023-04-08T06:51:57.874Z,27.80
2023-04-08T06:54:24.766Z,26.10
2023-04-08T06:56:51.590Z,24.13
2023-04-08T06:59:18.390Z,25.70
2023-04-08T07:01:45.203Z,24.73
2023-04-08T07:04:12.139Z,23.23
2023-04-08T07:06:39.009Z,23.80
2023-04-08T07:09:05.794Z,25.00
2023-04-08T07:11:32.786Z,21.83
2023-04-08T07:13:59.836Z,19.23
2023-04-08T07:16:26.900Z,19.53
2023-04-08T07:18:53.778Z,19.77
2023-04-08T07:21:20.593Z,17.70
2023-04-08T07:23:47.483Z,20.57
2023-04-08T07:26:14.353Z,19.93
2023-04-08T07:28:41.452Z,19.17
2023-04-08T07:31:18.586Z,21.30
2023-04-08T07:33:46.686Z,22.87
2023-04-08T07:36:15.069Z,20.10
2023-04-08T07:38:41.872Z,20.37
2023-04-08T07:41:08.988Z,21.30
2023-04-08T07:43:35.948Z,20.00
2023-04-08T07:46:06.882Z,18.83
2023-04-08T07:48:35.179Z,20.90
2023-04-08T07:51:10.649Z,19.70
2023-04-08T07:53:40.008Z,21.13
2023-04-08T07:56:15.465Z,20.87
2023-04-08T07:58:42.797Z,19.80
2023-04-08T08:01:22.448Z,20.23
2023-04-08T08:03:51.845Z,21.20
2023-04-08T08:06:19.479Z,20.10
2023-04-08T08:08:46.376Z,20.80
2023-04-08T08:11:13.640Z,23.27
2023-04-08T08:13:40.507Z,22.67
2023-04-08T08:16:07.367Z,21.40
2023-04-08T08:18:35.030Z,22.87
2023-04-08T08:21:03.063Z,21.80
2023-04-08T08:23:29.888Z,21.67
2023-04-08T08:26:01.686Z,20.60
2023-04-08T08:28:28.855Z,21.23
2023-04-08T08:30:55.730Z,20.53
2023-04-08T08:33:22.680Z,20.57
2023-04-08T08:35:49.590Z,21.00
2023-04-08T08:38:16.425Z,21.90
2023-04-08T08:40:44.685Z,20.03
2023-04-08T08:43:12.122Z,20.67
2023-04-08T08:45:43.237Z,21.40
2023-04-08T08:48:10.011Z,19.63
2023-04-08T08:50:37.306Z,22.07
2023-04-08T08:53:04.217Z,20.90
2023-04-08T08:55:50.888Z,21.30
2023-04-08T08:58:20.187Z,19.83
2023-04-08T09:00:47.028Z,20.67
2023-04-08T09:03:28.312Z,23.47
2023-04-08T09:06:02.125Z,22.53
2023-04-08T09:08:36.522Z,20.23
2023-04-08T09:11:20.811Z,21.20
2023-04-08T09:13:48.149Z,18.30
2023-04-08T09:16:20.162Z,20.40
2023-04-08T09:18:48.437Z,20.63
2023-04-08T09:21:23.191Z,20.73
2023-04-08T09:23:52.556Z,21.53
2023-04-08T09:26:24.697Z,20.37
2023-04-08T09:29:18.332Z,18.17
2023-04-08T09:31:57.040Z,20.63
2023-04-08T09:34:25.570Z,19.70
2023-04-08T09:36:54.075Z,19.83
2023-04-08T09:39:21.429Z,21.03
2023-04-08T09:41:50.812Z,20.23
2023-04-08T09:44:20.186Z,19.40
2023-04-08T09:46:49.677Z,19.27
2023-04-08T09:49:25.722Z,19.23
2023-04-08T09:52:10.465Z,18.97
2023-04-08T09:55:04.296Z,20.33
2023-04-08T09:57:59.705Z,18.47
2023-04-08T10:00:34.415Z,17.30
2023-04-08T10:03:23.690Z,19.53
2023-04-08T10:05:54.310Z,19.90
2023-04-08T10:08:23.048Z,22.17
2023-04-08T10:10:50.764Z,20.70
2023-04-08T10:13:18.927Z,20.90
2023-04-08T10:15:45.756Z,19.93
2023-04-08T10:18:12.565Z,21.50
2023-04-08T10:20:39.394Z,19.50
2023-04-08T10:23:08.463Z,20.93
2023-04-08T10:25:39.755Z,22.30
2023-04-08T10:28:12.379Z,23.00
2023-04-08T10:30:53.629Z,23.30
2023-04-08T10:33:34.365Z,23.93
2023-04-08T10:36:12.559Z,22.67
2023-04-08T10:38:40.203Z,23.87
2023-04-08T10:41:07.071Z,23.43
2023-04-08T10:43:35.935Z,21.63
2023-04-08T10:46:04.189Z,22.20
2023-04-08T10:48:31.132Z,21.40
2023-04-08T10:51:01.612Z,21.33
2023-04-08T10:53:36.426Z,22.03
2023-04-08T10:56:14.793Z,24.00
2023-04-08T10:58:50.219Z,21.83
2023-04-08T11:01:18.151Z,21.23
2023-04-08T11:03:45.774Z,22.60
2023-04-08T11:06:12.700Z,23.10
2023-04-08T11:08:39.643Z,23.53
2023-04-08T11:11:07.638Z,22.50
2023-04-08T11:13:40.728Z,21.17
2023-04-08T11:16:17.618Z,23.40
2023-04-08T11:18:45.758Z,26.13
2023-04-08T11:21:12.735Z,23.27
2023-04-08T11:23:39.563Z,21.77
2023-04-08T11:26:06.986Z,23.23
2023-04-08T11:28:35.234Z,22.60
2023-04-08T11:31:02.881Z,22.43
2023-04-08T11:33:33.397Z,25.03
2023-04-08T11:36:03.503Z,24.20
2023-04-08T11:38:30.374Z,23.00
2023-04-08T11:40:59.594Z,23.87
2023-04-08T11:43:26.731Z,25.90
2023-04-08T11:45:53.569Z,23.10
2023-04-08T11:48:20.468Z,23.03
2023-04-08T11:50:47.383Z,23.87
2023-04-08T11:53:22.602Z,22.47
2023-04-08T11:55:49.527Z,22.90
2023-04-08T11:58:16.849Z,22.70
2023-04-08T12:00:44.459Z,24.27
2023-04-08T12:03:12.229Z,22.47
2023-04-08T12:05:39.543Z,22.03
2023-04-08T12:08:06.476Z,23.67
2023-04-08T12:10:33.405Z,22.80
2023-04-08T12:13:00.304Z,23.10
2023-04-08T12:15:27.316Z,24.37
2023-04-08T12:17:54.179Z,24.80
2023-04-08T12:20:21.194Z,23.20
2023-04-08T12:22:48.241Z,24.00
2023-04-08T12:25:15.261Z,23.50
2023-04-08T12:27:42.213Z,22.07
2023-04-08T12:30:10.076Z,22.50
2023-04-08T12:32:36.905Z,22.00
2023-04-08T12:35:03.845Z,21.13
2023-04-08T12:37:30.661Z,20.87
2023-04-08T12:39:57.447Z,20.63
2023-04-08T12:42:24.354Z,21.23
2023-04-08T12:44:51.160Z,21.83
2023-04-08T12:47:18.039Z,19.67
2023-04-08T12:52:14.715Z,19.63
2023-04-08T12:54:41.560Z,19.57
2023-04-08T12:57:08.415Z,18.30
2023-04-08T12:59:35.331Z,18.57
2023-04-08T13:02:02.340Z,19.47
2023-04-08T13:04:29.286Z,19.40
2023-04-08T13:06:56.126Z,18.73
2023-04-08T13:09:23.113Z,17.30
2023-04-08T13:11:50.155Z,19.10
2023-04-08T13:14:16.971Z,17.43
2023-04-08T13:16:43.868Z,12.50
2023-04-08T13:19:10.753Z,9.90
2023-04-08T13:21:37.616Z,9.90
2023-04-08T13:24:04.970Z,9.50
2023-04-08T13:26:31.863Z,10.80
2023-04-08T13:28:58.808Z,10.13
2023-04-08T13:31:26.225Z,10.13
2023-04-08T13:33:55.292Z,11.37
2023-04-08T13:36:23.916Z,11.00
2023-04-08T13:38:51.084Z,10.80
2023-04-08T13:41:18.244Z,11.00
2023-04-08T13:43:45.044Z,9.53
2023-04-08T13:46:11.886Z,9.87
2023-04-08T13:48:38.859Z,10.20
2023-04-08T13:51:05.703Z,8.80
2023-04-08T13:53:32.574Z,10.60
2023-04-08T13:55:59.433Z,10.00
2023-04-08T13:58:26.286Z,10.03
2023-04-08T14:00:53.191Z,10.73
2023-04-08T14:03:20.296Z,10.50
2023-04-08T14:05:47.122Z,9.30
2023-04-08T14:08:14.079Z,9.80
2023-04-08T14:10:41.047Z,9.23
2023-04-08T14:13:08.093Z,8.03
2023-04-08T14:15:34.952Z,7.30
2023-04-08T14:18:01.939Z,8.33
2023-04-08T14:20:29.094Z,7.83
2023-04-08T14:22:55.923Z,12.87
2023-04-08T14:25:22.752Z,13.37
2023-04-08T14:27:58.053Z,7.97
2023-04-08T14:30:26.157Z,9.90
2023-04-08T14:32:53.377Z,7.70
2023-04-08T14:35:20.282Z,8.40
2023-04-08T14:37:47.194Z,8.10
2023-04-08T14:40:14.215Z,8.10
2023-04-08T14:42:41.225Z,8.00
2023-04-08T14:45:09.114Z,8.00
2023-04-08T14:47:36.134Z,7.07
2023-04-08T14:50:03.120Z,8.07
2023-04-08T14:52:30.032Z,7.90
2023-04-08T14:54:56.826Z,7.63
2023-04-08T14:57:23.674Z,8.63
2023-04-08T14:59:51.183Z,12.30
2023-04-08T15:02:18.167Z,12.10
2023-04-08T15:04:45.186Z,9.90
2023-04-08T15:07:12.179Z,8.93
2023-04-08T15:09:39.142Z,11.57
2023-04-08T15:12:06.130Z,8.23
2023-04-08T15:14:33.018Z,10.20
2023-04-08T15:16:59.892Z,9.40
2023-04-08T15:19:26.772Z,9.40
2023-04-08T15:21:53.576Z,10.20
2023-04-08T15:24:20.400Z,10.20
2023-04-08T15:26:47.302Z,10.47
2023-04-08T15:29:14.134Z,6.87
2023-04-08T15:31:41.095Z,8.00
2023-04-08T15:34:08.234Z,7.07
2023-04-08T15:36:35.145Z,6.97
2023-04-08T15:39:02.001Z,6.90
2023-04-08T15:41:28.824Z,7.83
2023-04-08T15:43:55.686Z,8.30
2023-04-08T15:46:22.861Z,8.00
2023-04-08T15:48:51.228Z,7.90
2023-04-08T15:51:18.430Z,8.70
2023-04-08T15:53:45.318Z,9.50
2023-04-08T15:56:16.737Z,15.27
2023-04-08T15:58:45.338Z,12.30
2023-04-08T16:01:12.854Z,10.80
2023-04-08T16:03:39.773Z,9.17
2023-04-08T16:06:06.816Z,8.40
2023-04-08T16:08:34.695Z,9.70
2023-04-08T16:11:05.464Z,9.80
2023-04-08T16:13:32.595Z,10.47
2023-04-08T16:16:02.687Z,10.10
2023-04-08T16:18:30.523Z,8.20
2023-04-08T16:20:57.852Z,8.97
2023-04-08T16:23:24.818Z,8.37
2023-04-08T16:25:52.050Z,8.03
2023-04-08T16:28:18.941Z,8.80
2023-04-08T16:30:45.744Z,8.20
2023-04-08T16:33:12.866Z,8.90
2023-04-08T16:35:39.960Z,8.70
2023-04-08T16:38:06.834Z,11.50
2023-04-08T16:40:34.940Z,11.93
2023-04-08T16:43:02.647Z,13.43
2023-04-08T16:45:30.092Z,13.27
2023-04-08T16:47:57.672Z,11.43
2023-04-08T16:50:25.069Z,12.40
2023-04-08T16:52:51.980Z,11.80
2023-04-08T16:55:19.503Z,14.10
2023-04-08T16:57:46.488Z,15.07
2023-04-08T17:00:14.118Z,12.37
2023-04-08T17:02:41.121Z,12.90
2023-04-08T17:05:08.684Z,11.20
2023-04-08T17:07:35.439Z,13.90
2023-04-08T17:10:02.328Z,12.17
2023-04-08T17:12:29.422Z,10.53
2023-04-08T17:14:56.225Z,10.20
2023-04-08T17:17:23.191Z,12.03
2023-04-08T17:19:50.048Z,15.50
2023-04-08T17:22:16.826Z,13.70
2023-04-08T17:24:44.957Z,10.60
2023-04-08T17:27:13.566Z,11.30
2023-04-08T17:29:40.433Z,11.73
2023-04-08T17:32:07.587Z,11.60
2023-04-08T17:34:34.523Z,10.53
2023-04-08T17:37:01.366Z,11.47
2023-04-08T17:39:28.171Z,10.50
2023-04-08T17:41:54.986Z,11.37
2023-04-08T17:44:21.830Z,11.87
2023-04-08T17:46:48.687Z,11.23
2023-04-08T17:49:15.632Z,13.20
2023-04-08T17:51:42.440Z,12.37
2023-04-08T17:54:09.361Z,16.23
2023-04-08T17:56:36.308Z,12.03
2023-04-08T17:59:03.094Z,13.10
2023-04-08T18:01:30.055Z,11.80
2023-04-08T18:03:57.709Z,11.47
2023-04-08T18:06:25.536Z,11.00
2023-04-08T18:08:52.758Z,11.37
2023-04-08T18:11:19.977Z,12.40
2023-04-08T18:13:47.780Z,11.87
2023-04-08T18:16:19.884Z,13.43
2023-04-08T18:18:47.659Z,11.67
2023-04-08T18:21:15.600Z,11.60
2023-04-08T18:23:42.482Z,15.80
2023-04-08T18:26:10.359Z,12.07
2023-04-08T18:28:39.693Z,16.53
2023-04-08T18:31:06.676Z,15.00
2023-04-08T18:33:33.954Z,9.30
2023-04-08T18:36:12.217Z,10.70
2023-04-08T18:38:40.061Z,12.17
2023-04-08T18:41:08.158Z,11.57
2023-04-08T18:43:36.090Z,10.67
2023-04-08T18:46:03.354Z,10.70
2023-04-08T18:48:30.718Z,10.13
2023-04-08T18:50:57.576Z,9.80
2023-04-08T18:53:24.425Z,9.63
2023-04-08T18:55:51.328Z,11.40
2023-04-08T18:58:18.217Z,8.37
2023-04-08T19:00:45.160Z,11.67
2023-04-08T19:03:12.078Z,9.10
2023-04-08T19:05:39.175Z,10.07
2023-04-08T19:08:06.321Z,9.87
2023-04-08T19:10:34.429Z,8.90
2023-04-08T19:13:02.252Z,9.27
2023-04-08T19:15:29.861Z,16.70
2023-04-08T19:17:56.917Z,11.83
2023-04-08T19:20:24.391Z,10.27
2023-04-08T19:22:51.404Z,10.30
2023-04-08T19:25:18.337Z,9.57
2023-04-08T19:27:45.135Z,9.37
2023-04-08T19:30:12.274Z,11.47
2023-04-08T19:32:39.219Z,10.17
2023-04-08T19:35:07.366Z,9.77
2023-04-08T19:37:34.177Z,10.93
2023-04-08T19:40:01.022Z,9.90
2023-04-08T19:42:27.781Z,10.63
2023-04-08T19:44:55.133Z,12.67
2023-04-08T19:47:22.245Z,10.27
2023-04-08T19:49:49.180Z,11.23
2023-04-08T19:52:15.982Z,10.77
2023-04-08T19:54:42.889Z,10.93
2023-04-08T19:57:09.858Z,10.30
2023-04-08T19:59:37.678Z,10.30
2023-04-08T20:02:04.570Z,10.20
2023-04-08T20:04:31.670Z,10.80
2023-04-08T20:06:58.916Z,11.37
2023-04-08T20:09:25.785Z,11.03
2023-04-08T20:11:52.579Z,12.10
2023-04-08T20:14:19.470Z,10.50
2023-04-08T20:16:46.283Z,10.67
2023-04-08T20:19:13.112Z,10.77
2023-04-08T20:21:39.946Z,10.20
2023-04-08T20:24:06.772Z,12.13
2023-04-08T20:26:33.652Z,10.90
2023-04-08T20:29:00.444Z,11.93
2023-04-08T20:31:27.415Z,10.83
2023-04-08T20:33:54.212Z,13.07
2023-04-08T20:36:21.064Z,12.43
2023-04-08T20:38:47.913Z,12.97
2023-04-08T20:41:19.303Z,11.50
2023-04-08T20:43:46.631Z,13.00
2023-04-08T20:46:13.500Z,13.30
2023-04-08T20:48:40.434Z,13.23
2023-04-08T20:51:07.208Z,13.10
2023-04-08T20:53:34.083Z,12.77
2023-04-08T20:56:01.232Z,13.30
2023-04-08T20:58:28.443Z,12.30
2023-04-08T21:00:57.633Z,12.93
2023-04-08T21:03:24.744Z,11.80
2023-04-08T21:05:52.159Z,12.43
2023-04-08T21:08:19.032Z,12.40
2023-04-08T21:10:45.879Z,13.80
2023-04-08T21:13:12.929Z,13.90
2023-04-08T21:15:39.779Z,12.20
2023-04-08T21:18:06.723Z,11.53
2023-04-08T21:20:33.805Z,11.93
2023-04-08T21:23:00.676Z,12.87
2023-04-08T21:25:27.514Z,12.70
2023-04-08T21:27:54.343Z,11.73
2023-04-08T21:30:21.269Z,12.90
2023-04-08T21:32:48.060Z,14.00
2023-04-08T21:35:15.543Z,14.53
2023-04-08T21:37:42.357Z,17.10
2023-04-08T21:40:10.120Z,14.90
2023-04-08T21:42:36.913Z,14.00
2023-04-08T21:45:04.258Z,14.33
2023-04-08T21:47:31.063Z,15.13
2023-04-08T21:49:58.084Z,13.90
2023-04-08T21:52:24.911Z,14.07
2023-04-08T21:54:51.802Z,14.03
2023-04-08T21:57:19.470Z,13.30
2023-04-08T21:59:46.267Z,14.87
2023-04-08T22:02:13.225Z,12.77
2023-04-08T22:04:40.427Z,13.70
2023-04-08T22:07:07.213Z,13.97
2023-04-08T22:09:35.075Z,13.20
2023-04-08T22:12:02.041Z,12.83
2023-04-08T22:14:29.002Z,13.27
2023-04-08T22:16:55.969Z,14.23
2023-04-08T22:19:22.990Z,12.17
2023-04-08T22:21:49.875Z,12.00
2023-04-08T22:24:20.526Z,13.93
2023-04-08T22:26:47.661Z,13.50
2023-04-08T22:29:14.500Z,13.40
2023-04-08T22:31:41.386Z,15.23
2023-04-08T22:34:08.349Z,12.40
2023-04-08T22:36:35.161Z,13.03
2023-04-08T22:39:01.991Z,12.70
2023-04-08T22:41:28.867Z,12.70
2023-04-08T22:43:55.698Z,13.43
2023-04-08T22:46:22.584Z,13.47
2023-04-08T22:48:49.875Z,13.13
2023-04-08T22:51:17.036Z,14.10
2023-04-08T22:53:43.994Z,14.30
2023-04-08T22:56:10.764Z,15.07
2023-04-08T22:58:37.596Z,14.97
2023-04-08T23:01:18.524Z,14.73
2023-04-08T23:03:45.395Z,15.70
2023-04-08T23:06:12.315Z,14.47
2023-04-08T23:08:40.186Z,14.80
2023-04-08T23:11:07.241Z,13.93
2023-04-08T23:13:34.406Z,15.20
2023-04-08T23:16:01.279Z,13.50
2023-04-08T23:18:28.216Z,14.27
2023-04-08T23:20:57.329Z,13.80
2023-04-08T23:23:25.445Z,14.70
2023-04-08T23:25:55.368Z,13.27
2023-04-08T23:28:23.341Z,13.33
2023-04-08T23:30:50.235Z,15.60
2023-04-08T23:33:17.148Z,14.70
2023-04-08T23:35:44.165Z,14.80
2023-04-08T23:38:11.005Z,14.37
2023-04-08T23:40:37.946Z,15.90
2023-04-08T23:43:04.684Z,14.30
2023-04-08T23:45:31.535Z,14.53
2023-04-08T23:47:58.835Z,14.23
2023-04-08T23:50:25.864Z,14.20
2023-04-08T23:52:52.746Z,15.50
2023-04-08T23:55:19.588Z,17.10
2023-04-08T23:57:46.468Z,18.13
